Time;durP1;ratioP1;P1;durP2;ratioP2;P2;SDS_P1;SDS_P2;PMS_P1;PMS_P2;Temp;Humidity;BMP_temperature;BMP_pressure;BME280_temperature;BME280_humidity;BME280_pressure;Samples;Min_cycle;Max_cycle;Signal;HPM_P1;HPM_P2
2021/04/01 00:00:17;;;;;;;15.05;6.25;;;12.10;50.40;;;11.11;48.49;96357.00;4978467;28;20069;-68
2021/04/01 00:02:53;;;;;;;10.82;5.80;;;12.10;50.60;;;11.03;50.30;96355.25;4948630;28;20058;-68
2021/04/01 00:05:19;;;;;;;14.45;6.63;;;12.00;50.80;;;10.96;48.80;96357.81;4946041;28;20027;-68
2021/04/01 00:07:45;;;;;;;21.25;6.25;;;11.90;51.00;;;10.93;49.47;96355.56;4918282;28;20507;-68
2021/04/01 00:10:15;;;;;;;15.50;6.55;;;11.90;50.90;;;10.88;49.79;96352.69;4965546;28;20118;-68
2021/04/01 00:12:41;;;;;;;13.60;5.57;;;11.80;51.10;;;10.85;49.06;96346.94;4943791;28;20043;-68
2021/04/01 00:15:11;;;;;;;13.77;5.88;;;11.90;51.00;;;10.83;48.82;96349.75;4950388;28;20407;-68
2021/04/01 00:17:41;;;;;;;12.48;6.00;;;11.80;51.10;;;10.80;50.81;96347.50;4947007;28;20047;-68
2021/04/01 00:20:09;;;;;;;11.40;6.22;;;11.80;51.40;;;10.80;49.96;96344.06;4935782;28;20414;-68
2021/04/01 00:22:35;;;;;;;14.73;6.57;;;11.90;51.60;;;10.78;48.89;96341.63;4932307;28;20047;-68
2021/04/01 00:25:01;;;;;;;11.27;5.85;;;11.90;51.10;;;10.74;49.40;96340.34;4966317;28;20066;-68
2021/04/01 00:27:27;;;;;;;12.82;5.97;;;11.80;51.30;;;10.68;49.16;96339.28;4933056;28;20031;-68
2021/04/01 00:29:53;;;;;;;10.68;5.68;;;11.70;51.40;;;10.66;49.52;96343.09;4966821;28;20038;-69
2021/04/01 00:32:18;;;;;;;12.68;5.82;;;11.70;51.50;;;10.64;49.06;96342.47;4927844;28;20121;-68
2021/04/01 00:34:44;;;;;;;8.88;5.43;;;11.60;51.30;;;10.59;50.20;96336.91;4951122;28;20116;-68
2021/04/01 00:37:10;;;;;;;10.57;5.40;;;11.60;51.30;;;10.55;49.84;96339.09;4980742;28;20430;-68
2021/04/01 00:39:35;;;;;;;9.88;4.78;;;11.60;51.50;;;10.57;48.99;96334.47;4985517;28;20023;-68
2021/04/01 00:42:03;;;;;;;13.98;6.03;;;11.70;51.10;;;10.54;49.62;96334.84;4947860;28;20050;-68
2021/04/01 00:44:29;;;;;;;14.50;6.05;;;11.60;51.30;;;10.57;49.83;96337.09;4950240;28;20066;-69
2021/04/01 00:46:55;;;;;;;11.57;5.43;;;11.70;51.20;;;10.57;49.19;96338.91;4946307;28;20038;-69
2021/04/01 00:49:21;;;;;;;10.90;5.20;;;11.70;51.00;;;10.54;49.15;96336.66;4946766;28;20039;-70
2021/04/01 00:51:47;;;;;;;13.55;5.43;;;11.60;50.90;;;10.54;49.38;96334.03;4932643;28;20047;-69
2021/04/01 00:54:12;;;;;;;9.15;4.80;;;11.70;51.20;;;10.53;49.66;96332.41;4955862;28;20458;-69
2021/04/01 00:56:38;;;;;;;8.25;4.82;;;11.60;51.40;;;10.51;49.62;96334.41;4962863;28;20460;-69
2021/04/01 00:59:04;;;;;;;11.88;5.72;;;11.70;51.40;;;10.52;49.43;96336.03;4956565;28;20159;-69
2021/04/01 01:01:47;;;;;;;12.57;4.80;;;11.60;51.10;;;10.52;49.68;96330.75;4943890;28;20043;-69
2021/04/01 01:04:13;;;;;;;9.85;4.55;;;11.60;51.00;;;10.50;49.38;96327.50;4953202;28;20089;-69
2021/04/01 01:06:39;;;;;;;9.32;5.45;;;11.60;51.10;;;10.48;49.59;96329.50;4948437;28;20047;-69
2021/04/01 01:09:06;;;;;;;11.88;5.68;;;11.60;51.30;;;10.45;49.86;96325.44;4974549;28;20046;-69
2021/04/01 01:11:33;;;;;;;10.68;5.45;;;11.60;51.50;;;10.41;49.67;96322.34;4955585;28;20038;-69
2021/04/01 01:14:01;;;;;;;11.25;5.30;;;11.60;51.40;;;10.41;50.74;96326.78;4940274;28;20069;-69
2021/04/01 01:16:27;;;;;;;11.38;5.68;;;11.60;51.60;;;10.39;50.21;96328.75;4949526;28;20117;-69
2021/04/01 01:18:52;;;;;;;10.73;5.55;;;11.60;51.60;;;10.33;50.80;96322.44;4958929;28;20100;-69
2021/04/01 01:21:18;;;;;;;12.35;5.63;;;11.40;51.90;;;10.27;50.81;96323.16;4963974;28;20039;-69
2021/04/01 01:23:44;;;;;;;10.40;5.13;;;11.40;52.40;;;10.26;50.70;96321.53;4956803;28;20097;-69
2021/04/01 01:26:10;;;;;;;12.68;6.07;;;11.50;52.20;;;10.21;51.19;96318.63;4960647;28;20063;-69
2021/04/01 01:28:35;;;;;;;12.93;6.22;;;11.30;52.60;;;10.19;51.27;96315.34;4951302;28;20094;-69
2021/04/01 01:31:01;;;;;;;11.50;5.68;;;11.30;52.70;;;10.18;51.26;96312.88;4959618;28;20039;-69
2021/04/01 01:33:27;;;;;;;11.15;5.50;;;11.30;53.00;;;10.13;51.45;96308.97;4950843;28;20461;-68
2021/04/01 01:35:54;;;;;;;13.20;5.68;;;11.20;53.10;;;10.08;51.77;96307.88;4958402;28;20035;-68
2021/04/01 01:38:20;;;;;;;9.25;5.22;;;11.10;53.30;;;10.05;51.42;96298.56;4956395;28;20097;-69
2021/04/01 01:40:46;;;;;;;10.98;5.45;;;11.10;53.30;;;10.05;51.06;96308.25;4958231;28;20090;-69
2021/04/01 01:43:14;;;;;;;10.90;5.78;;;11.20;53.50;;;10.04;51.95;96309.25;4953860;28;20538;-69
2021/04/01 01:45:40;;;;;;;11.82;5.60;;;11.10;53.50;;;10.00;51.62;96305.34;4961383;28;20121;-70
2021/04/01 01:48:06;;;;;;;11.75;5.53;;;11.10;53.70;;;9.99;51.32;96308.97;4941262;28;20073;-69
2021/04/01 01:50:34;;;;;;;13.07;5.43;;;11.10;53.60;;;9.97;51.70;96297.84;4962639;28;20409;-69
2021/04/01 01:53:00;;;;;;;15.88;5.47;;;11.10;53.50;;;9.94;52.15;96298.16;4971223;28;20039;-69
2021/04/01 01:55:27;;;;;;;16.23;5.50;;;11.10;53.60;;;9.91;51.76;96298.53;4944131;28;20094;-69
2021/04/01 01:57:52;;;;;;;12.88;5.70;;;11.10;54.00;;;9.91;51.82;96294.09;4952097;28;20035;-69
2021/04/01 02:00:23;;;;;;;9.32;5.50;;;11.10;53.80;;;9.91;52.47;96296.72;4964175;28;20047;-69
2021/04/01 02:02:57;;;;;;;15.95;5.93;;;11.10;53.80;;;9.88;53.90;96302.34;4963542;28;20045;-69
2021/04/01 02:05:24;;;;;;;9.93;5.43;;;11.10;53.70;;;9.87;51.90;96294.63;4950813;28;20753;-69
2021/04/01 02:07:50;;;;;;;16.02;5.75;;;11.10;54.00;;;9.85;52.48;96301.88;4961604;28;20043;-69
2021/04/01 02:10:30;;;;;;;11.35;6.00;;;11.10;54.00;;;9.82;53.52;96298.63;4969595;28;20118;-69
2021/04/01 02:12:56;;;;;;;9.43;5.20;;;11.00;54.40;;;9.77;52.48;96300.97;4934639;28;20059;-69
2021/04/01 02:15:24;;;;;;;13.07;5.53;;;11.00;54.20;;;9.74;52.91;96296.09;4951644;28;20153;-69
2021/04/01 02:17:50;;;;;;;10.48;5.88;;;11.00;54.50;;;9.72;52.37;96297.22;4952213;28;20046;-69
2021/04/01 02:20:16;;;;;;;11.10;6.05;;;10.90;54.50;;;9.68;52.85;96281.00;4968195;28;20042;-69
2021/04/01 02:22:42;;;;;;;9.80;6.03;;;10.90;54.60;;;9.66;52.80;96282.19;4950744;28;20121;-69
2021/04/01 02:25:08;;;;;;;16.05;7.07;;;10.80;55.00;;;9.63;52.64;96291.25;4966833;28;20074;-69
2021/04/01 02:27:34;;;;;;;13.82;8.23;;;10.80;55.40;;;9.60;52.90;96291.59;4964538;28;20396;-69
2021/04/01 02:30:00;;;;;;;14.45;9.05;;;10.80;55.50;;;9.58;52.89;96290.16;4968069;28;20094;-69
2021/04/01 02:32:26;;;;;;;14.20;8.25;;;10.80;55.90;;;9.59;53.28;96287.34;4963482;28;20043;-69
2021/04/01 02:34:51;;;;;;;20.05;7.85;;;10.90;55.40;;;9.57;53.21;96284.09;4959624;28;20352;-69
2021/04/01 02:37:17;;;;;;;12.38;6.22;;;10.80;55.50;;;9.54;53.69;96279.19;4959791;28;20035;-69
2021/04/01 02:39:43;;;;;;;11.93;5.85;;;10.80;55.70;;;9.51;53.80;96283.00;4968707;28;20050;-69
2021/04/01 02:42:09;;;;;;;12.48;5.72;;;10.80;55.70;;;9.47;54.03;96283.50;4967313;28;20043;-69
2021/04/01 02:44:36;;;;;;;12.75;5.95;;;10.80;55.90;;;9.45;53.95;96272.38;4972358;28;20530;-69
2021/04/01 02:47:02;;;;;;;11.02;6.00;;;10.70;55.90;;;9.44;54.18;96275.97;4968160;28;20127;-69
2021/04/01 02:49:28;;;;;;;14.80;5.85;;;10.60;56.30;;;9.41;54.30;96278.97;4949381;28;20080;-69
2021/04/01 02:51:54;;;;;;;12.45;5.47;;;10.60;56.40;;;9.37;54.26;96277.69;4957293;28;20050;-69
2021/04/01 02:54:19;;;;;;;13.30;5.75;;;10.60;56.60;;;9.35;54.03;96277.06;4966340;28;20487;-68
2021/04/01 02:56:45;;;;;;;9.48;5.72;;;10.50;56.80;;;9.32;54.39;96278.22;4951765;28;20483;-68
2021/04/01 02:59:11;;;;;;;17.42;8.75;;;10.50;56.90;;;9.29;54.74;96275.16;4948251;28;20616;-69
2021/04/01 03:01:37;;;;;;;16.85;10.70;;;10.50;57.10;;;9.28;54.61;96270.84;4996580;28;20039;-69
2021/04/01 03:04:06;;;;;;;15.48;7.38;;;10.50;57.30;;;9.27;54.68;96279.72;4950678;28;20042;-69
2021/04/01 03:06:32;;;;;;;14.00;6.85;;;10.50;57.20;;;9.23;54.96;96273.22;4967258;28;20038;-69
2021/04/01 03:08:58;;;;;;;12.20;6.30;;;10.50;57.40;;;9.22;54.79;96269.75;4965564;28;20046;-69
2021/04/01 03:11:23;;;;;;;12.07;5.60;;;10.50;57.40;;;9.20;55.08;96274.38;4967737;28;20047;-69
2021/04/01 03:13:49;;;;;;;10.98;6.13;;;10.50;57.60;;;9.20;55.26;96282.25;4966947;28;20144;-69
2021/04/01 03:16:15;;;;;;;12.32;6.20;;;10.50;57.60;;;9.20;55.20;96283.06;4951282;28;20514;-69
2021/04/01 03:18:40;;;;;;;9.65;5.43;;;10.50;57.70;;;9.20;55.42;96279.63;4949770;28;20391;-68
2021/04/01 03:21:06;;;;;;;11.30;5.70;;;10.60;57.50;;;9.18;55.59;96276.38;4954652;28;20146;-69
2021/04/01 03:23:32;;;;;;;10.35;6.00;;;10.50;57.40;;;9.18;55.11;96279.00;4956999;28;20031;-69
2021/04/01 03:25:58;;;;;;;16.10;5.75;;;10.60;57.20;;;9.17;55.53;96277.34;4950741;28;20042;-69
2021/04/01 03:28:24;;;;;;;9.18;5.00;;;10.60;57.40;;;9.15;55.50;96269.66;4959576;28;20675;-69
2021/04/01 03:31:02;;;;;;;10.65;5.15;;;10.50;57.30;;;9.12;55.21;96267.41;4966622;28;20066;-69
2021/04/01 03:33:29;;;;;;;17.35;5.18;;;10.40;57.40;;;9.06;55.59;96269.91;4953149;28;20047;-69
2021/04/01 03:35:54;;;;;;;9.63;5.32;;;10.30;57.70;;;8.99;55.83;96264.53;4951242;28;20475;-69
2021/04/01 03:38:20;;;;;;;12.57;5.18;;;10.20;58.20;;;8.99;56.03;96269.78;4970885;28;20048;-68
2021/04/01 03:40:47;;;;;;;11.57;4.88;;;10.20;58.10;;;8.94;56.24;96272.09;4941658;28;20403;-68
2021/04/01 03:43:13;;;;;;;13.52;5.45;;;10.10;58.00;;;8.87;55.51;96258.88;4966926;28;20027;-69
2021/04/01 03:45:39;;;;;;;12.07;5.20;;;10.10;58.30;;;8.85;55.68;96262.66;4952596;28;20619;-69
2021/04/01 03:48:06;;;;;;;11.80;4.95;;;10.00;58.20;;;8.82;56.10;96257.75;4965588;28;20031;-69
2021/04/01 03:50:31;;;;;;;9.63;5.60;;;10.10;58.10;;;8.83;55.60;96269.91;4971397;28;20027;-69
2021/04/01 03:52:57;;;;;;;8.07;5.10;;;10.10;57.90;;;8.83;55.65;96272.53;4960952;28;20041;-68
2021/04/01 03:55:39;;;;;;;8.70;4.57;;;10.10;57.70;;;8.83;56.12;96270.72;4961331;28;20051;-69
2021/04/01 03:58:26;;;;;;;8.90;4.30;;;10.10;57.60;;;8.81;56.33;96274.47;4963968;28;20526;-67
2021/04/01 04:09:01;;;;;;;14.25;4.85;;;10.10;57.80;;;8.75;56.03;96268.13;4973863;28;20035;-68
2021/04/01 04:16:21;;;;;;;11.50;5.32;;;10.10;57.80;;;8.72;55.92;96257.97;4951202;28;20499;-68
2021/04/01 04:18:47;;;;;;;10.57;4.93;;;10.10;57.80;;;8.73;56.55;96253.56;4966508;28;20039;-69
2021/04/01 04:21:14;;;;;;;10.73;4.40;;;10.10;58.00;;;8.70;56.22;96256.53;4943712;28;20093;-69
2021/04/01 04:23:42;;;;;;;8.80;4.50;;;10.00;58.10;;;8.69;56.21;96254.91;4967023;28;20042;-69
2021/04/01 04:26:09;;;;;;;11.07;4.78;;;10.10;58.10;;;8.65;56.33;96246.56;4949564;28;20126;-69
2021/04/01 04:28:36;;;;;;;8.57;5.05;;;9.90;58.30;;;8.64;56.64;96254.59;4950276;28;20121;-69
2021/04/01 04:31:02;;;;;;;10.30;4.97;;;10.00;58.30;;;8.62;56.74;96251.34;4970221;28;20058;-69
2021/04/01 04:33:28;;;;;;;8.10;4.32;;;10.00;58.40;;;8.59;56.30;96258.53;4985925;28;20466;-69
2021/04/01 04:35:53;;;;;;;8.10;4.88;;;9.90;58.30;;;8.56;56.76;96258.88;4970391;28;20041;-68
2021/04/01 04:38:19;;;;;;;11.68;4.82;;;9.90;58.60;;;8.55;56.90;96257.25;4967123;28;20035;-69
2021/04/01 04:40:46;;;;;;;14.18;4.90;;;10.00;58.60;;;8.56;57.01;96261.50;4981501;28;20516;-68
2021/04/01 04:43:11;;;;;;;9.43;4.60;;;9.90;58.70;;;8.56;57.34;96252.81;4981211;28;20125;-69
2021/04/01 04:45:37;;;;;;;8.02;4.68;;;9.90;58.90;;;8.56;57.29;96258.06;4953619;28;20035;-69
2021/04/01 04:48:03;;;;;;;11.30;4.78;;;9.90;59.20;;;8.55;57.38;96259.88;4970937;28;20653;-69
2021/04/01 04:50:29;;;;;;;10.50;5.00;;;9.90;59.10;;;8.54;57.31;96266.09;4983569;28;20129;-68
2021/04/01 04:52:55;;;;;;;12.70;4.32;;;9.80;59.10;;;8.52;57.29;96262.84;5006661;28;20785;-68
2021/04/01 04:55:21;;;;;;;10.02;4.80;;;9.90;59.20;;;8.53;57.26;96266.28;4959192;28;20601;-68
2021/04/01 04:57:54;;;;;;;10.40;4.80;;;9.90;59.30;;;8.51;57.18;96266.44;4976556;28;20035;-68
2021/04/01 05:05:49;;;;;;;11.65;5.05;;;9.90;58.90;;;8.51;57.57;96269.06;4968894;28;20049;-68
2021/04/01 05:08:16;;;;;;;10.48;5.03;;;9.90;58.90;;;8.50;57.58;96266.63;4977739;28;20034;-68
2021/04/01 05:10:42;;;;;;;13.68;4.97;;;9.90;58.90;;;8.53;57.51;96268.91;4948415;28;20035;-67
2021/04/01 05:13:09;;;;;;;9.95;4.55;;;10.00;58.80;;;8.55;57.55;96265.13;4985287;28;20049;-67
2021/04/01 05:15:39;;;;;;;10.70;4.95;;;10.00;58.80;;;8.55;57.76;96272.97;4964310;28;20039;-71
2021/04/01 05:18:17;;;;;;;14.38;4.57;;;10.10;58.90;;;8.56;58.06;96273.81;4951979;28;20032;-71
2021/04/01 05:20:44;;;;;;;9.63;5.20;;;10.00;58.90;;;8.58;57.59;96272.63;4951887;28;20043;-71
2021/04/01 05:23:22;;;;;;;14.25;5.47;;;10.10;58.60;;;8.61;57.33;96265.44;4963096;28;20110;-70
2021/04/01 05:25:49;;;;;;;10.55;5.22;;;10.10;58.60;;;8.62;57.36;96272.31;4955810;28;20038;-70
2021/04/01 05:28:30;;;;;;;8.93;4.45;;;10.10;58.90;;;8.64;57.73;96270.34;4970568;28;20027;-70
2021/04/01 05:30:57;;;;;;;10.45;5.03;;;10.10;58.70;;;8.69;57.75;96262.75;4956809;28;20118;-70
2021/04/01 05:33:23;;;;;;;12.82;4.90;;;10.20;58.60;;;8.74;57.86;96265.69;4954372;28;20168;-70
2021/04/01 05:35:49;;;;;;;8.27;4.55;;;10.40;58.30;;;8.81;57.95;96262.19;4966424;28;20114;-70
2021/04/01 05:38:15;;;;;;;9.15;4.93;;;10.40;58.10;;;8.86;57.40;96262.50;4951215;29;20027;-69
2021/04/01 05:40:40;;;;;;;15.85;4.72;;;10.40;58.00;;;8.92;57.45;96271.47;4954194;28;20035;-70
2021/04/01 05:43:10;;;;;;;15.75;5.68;;;10.50;58.10;;;8.98;57.32;96272.56;4971092;28;20206;-70
2021/04/01 05:45:45;;;;;;;9.77;5.55;;;10.60;57.70;;;9.02;57.05;96274.66;4969860;28;20534;-70
2021/04/01 05:48:17;;;;;;;10.65;5.65;;;10.60;57.80;;;9.06;57.33;96277.78;4955338;28;20093;-70
2021/04/01 05:54:30;;;;;;;13.85;6.05;;;10.70;57.40;;;9.18;57.56;96274.56;4970181;28;20027;-70
2021/04/01 05:56:45;;;;;;;12.52;5.22;;;10.70;57.20;;;9.27;57.20;96282.34;4968380;28;20039;-69
2021/04/01 06:04:23;;;;;;;9.50;5.30;;;11.20;56.30;;;9.52;56.59;96281.19;4970124;28;20029;-70
2021/04/01 06:07:13;;;;;;;9.65;5.22;;;11.30;56.00;;;9.58;57.04;96272.59;4954522;28;20031;-70
2021/04/01 06:09:40;;;;;;;11.88;5.10;;;11.30;55.50;;;9.64;56.40;96285.00;4967771;28;20115;-70
2021/04/01 06:12:07;;;;;;;10.68;5.35;;;11.30;55.20;;;9.72;55.88;96286.72;4955375;28;20027;-70
2021/04/01 06:14:32;;;;;;;13.65;4.95;;;11.50;55.10;;;9.82;56.50;96285.50;4970186;28;20061;-71
2021/04/01 06:17:02;;;;;;;11.05;4.70;;;11.70;54.70;;;9.96;55.94;96293.56;4970847;28;20130;-70
2021/04/01 06:19:34;;;;;;;10.02;4.90;;;11.90;53.70;;;10.08;56.17;96292.13;4969042;28;20043;-70
2021/04/01 06:22:08;;;;;;;8.93;4.70;;;12.00;52.90;;;10.23;55.34;96300.88;4969623;28;20027;-70
2021/04/01 06:24:36;;;;;;;7.63;4.43;;;12.30;52.60;;;10.38;55.64;96296.38;4954336;28;20035;-70
2021/04/01 06:27:24;;;;;;;14.63;4.78;;;12.60;52.10;;;10.58;55.15;96298.47;4953611;28;20682;-70
2021/04/01 06:33:06;;;;;;;9.55;4.20;;;13.10;50.20;;;11.00;54.65;96293.28;4929467;29;20543;-70
2021/04/01 06:40:54;;;;;;;11.23;4.72;;;14.00;48.80;;;11.60;52.53;96294.66;4964688;28;20053;-73
2021/04/01 06:43:49;;;;;;;11.18;5.43;;;14.20;47.20;;;11.81;53.43;96290.41;4950355;28;20624;-72
2021/04/01 06:46:17;;;;;;;12.82;4.45;;;14.40;46.60;;;12.01;53.48;96296.63;4942497;28;20042;-72
2021/04/01 06:51:53;;;;;;;9.65;5.20;;;14.60;45.70;;;12.44;51.21;96293.81;4951702;28;20038;-68
2021/04/01 06:54:39;;;;;;;12.00;4.35;;;14.90;45.50;;;12.68;51.24;96295.97;4957942;28;20058;-67
2021/04/01 07:00:16;;;;;;;8.88;3.90;;;15.60;43.50;;;13.37;49.08;96289.69;4978430;28;20047;-66
2021/04/01 07:02:52;;;;;;;11.82;4.10;;;16.10;42.30;;;13.71;48.34;96281.56;4958537;28;20043;-67
2021/04/01 07:05:36;;;;;;;9.55;4.00;;;16.50;40.90;;;14.06;50.06;96287.44;4976107;28;20121;-67
2021/04/01 07:08:06;;;;;;;10.80;4.30;;;17.10;40.40;;;14.50;49.13;96278.00;4998889;28;20434;-67
2021/04/01 07:11:06;;;;;;;9.57;4.20;;;17.70;39.20;;;14.96;46.48;96284.94;4983197;28;20045;-67
2021/04/01 07:13:35;;;;;;;9.80;3.58;;;18.20;37.70;;;15.39;46.96;96281.59;4973482;28;20467;-68
2021/04/01 07:16:32;;;;;;;9.73;4.32;;;18.80;36.70;;;15.85;45.08;96276.00;4988196;28;20449;-66
2021/04/01 07:48:50;;;;;;;10.23;2.42;;;22.50;30.00;;;19.47;38.38;96263.38;4973715;28;20073;-71
2021/04/01 07:51:49;;;;;;;8.50;3.00;;;23.20;30.00;;;19.87;36.63;96259.75;4960736;28;20035;-72
2021/04/01 07:54:16;;;;;;;10.23;2.97;;;23.60;28.10;;;20.31;39.69;96259.88;4964927;28;20092;-69
2021/04/01 07:57:02;;;;;;;8.90;3.60;;;24.50;28.20;;;20.78;38.18;96258.38;4942308;28;20129;-70
2021/04/01 07:59:35;;;;;;;9.43;3.85;;;24.70;26.70;;;21.20;37.35;96264.97;4976843;28;20043;-70
2021/04/01 08:04:45;;;;;;;28.23;4.55;;;25.40;26.60;;;22.05;37.18;96266.06;4979129;28;20038;-70
2021/04/01 08:07:12;;;;;;;8.57;3.75;;;26.30;26.10;;;22.44;35.41;96258.56;4948824;28;20118;-70
2021/04/01 08:09:44;;;;;;;13.40;4.05;;;26.70;24.80;;;22.78;32.89;96253.59;4964087;28;20035;-69
2021/04/01 08:12:30;;;;;;;10.40;3.65;;;26.60;24.80;;;23.12;32.74;96264.75;4951528;28;20093;-71
2021/04/01 08:15:11;;;;;;;8.15;3.95;;;27.10;25.00;;;23.47;31.88;96261.31;4949222;28;20039;-71
2021/04/01 08:18:08;;;;;;;10.88;4.30;;;27.20;24.60;;;23.72;33.66;96253.31;4953997;28;20402;-68
2021/04/01 08:20:29;;;;;;;11.18;4.45;;;27.60;23.90;;;23.98;32.90;96250.63;4968234;28;20034;-72
2021/04/01 08:23:17;;;;;;;17.63;4.47;;;27.50;23.80;;;24.27;32.96;96254.38;4936040;28;20050;-71
2021/04/01 08:28:34;;;;;;;15.07;6.05;;;28.20;24.10;;;24.80;31.37;96246.69;4968074;28;20059;-68
2021/04/01 08:31:38;;;;;;;16.25;6.40;;;28.40;24.30;;;24.92;33.26;96249.88;4963790;28;20066;-69
2021/04/01 08:36:41;;;;;;;14.02;5.20;;;28.20;24.10;;;25.00;31.48;96241.25;4958908;28;20117;-69
2021/04/01 08:39:06;;;;;;;17.25;8.43;;;28.10;23.80;;;24.96;31.77;96234.78;4974140;28;20141;-67
2021/04/01 08:42:19;;;;;;;13.05;5.72;;;28.10;24.30;;;25.06;29.61;96235.84;4962704;28;20034;-64
2021/04/01 08:45:30;;;;;;;14.00;5.45;;;28.30;24.40;;;25.16;29.92;96227.72;4987545;28;20442;-67
2021/04/01 08:48:04;;;;;;;10.90;5.47;;;28.60;23.80;;;25.21;29.07;96230.38;4937374;28;20464;-70
2021/04/01 08:50:36;;;;;;;12.88;5.80;;;28.20;24.00;;;25.33;29.52;96230.84;4969848;28;20031;-72
2021/04/01 08:53:46;;;;;;;10.88;5.53;;;28.50;23.80;;;25.52;28.65;96225.59;4971055;28;20506;-68
2021/04/01 08:56:27;;;;;;;14.20;5.75;;;29.00;23.30;;;25.74;28.19;96227.88;4953295;28;20050;-70
2021/04/01 08:59:32;;;;;;;10.57;5.47;;;28.70;23.30;;;25.94;28.50;96225.81;4987217;28;20039;-68
2021/04/01 09:01:59;;;;;;;13.95;6.68;;;29.00;22.70;;;26.10;29.62;96223.00;4955669;28;20706;-70
2021/04/01 09:04:32;;;;;;;12.05;5.63;;;28.90;23.40;;;26.31;28.18;96220.91;4957471;28;20042;-68
2021/04/01 09:07:26;;;;;;;12.20;5.55;;;28.80;23.00;;;26.52;27.46;96212.31;4934267;28;20059;-66
2021/04/01 09:09:53;;;;;;;12.20;5.63;;;29.00;23.40;;;26.84;28.85;96214.34;4955556;28;20102;-69
2021/04/01 09:12:29;;;;;;;13.63;6.30;;;29.60;23.30;;;27.10;27.08;96217.53;4947845;28;20027;-69
2021/04/01 09:15:06;;;;;;;13.15;6.25;;;29.70;22.70;;;27.41;26.67;96217.94;4956898;28;20429;-67
2021/04/01 09:17:37;;;;;;;16.17;6.75;;;29.90;22.30;;;27.63;26.26;96211.13;4964919;28;20038;-66
2021/04/01 09:20:22;;;;;;;14.35;6.13;;;29.60;22.20;;;27.85;25.51;96215.91;4954846;28;20027;-71
2021/04/01 09:22:57;;;;;;;14.88;6.40;;;30.00;21.70;;;28.11;26.06;96210.88;4985295;28;20038;-69
2021/04/01 09:25:35;;;;;;;11.88;6.50;;;30.20;22.20;;;28.38;25.54;96208.22;4945041;28;20050;-71
2021/04/01 09:28:03;;;;;;;13.25;6.35;;;30.10;22.20;;;28.63;26.48;96215.84;4950687;28;20027;-70
2021/04/01 09:30:28;;;;;;;14.48;6.85;;;30.40;21.30;;;28.71;25.94;96210.81;4986459;28;20035;-71
2021/04/01 09:32:58;;;;;;;12.13;6.63;;;30.10;21.80;;;28.87;25.46;96209.44;4969936;28;20513;-70
2021/04/01 09:35:24;;;;;;;11.80;6.50;;;30.20;22.10;;;28.98;25.99;96210.84;4938480;28;20109;-71
2021/04/01 09:37:59;;;;;;;14.25;6.63;;;30.10;22.10;;;29.18;23.58;96215.78;4969726;28;20030;-70
2021/04/01 09:40:33;;;;;;;14.30;7.32;;;30.40;21.40;;;29.33;23.36;96208.44;4986391;28;20082;-71
2021/04/01 09:43:18;;;;;;;12.77;6.55;;;30.50;21.10;;;29.50;23.23;96211.31;4941950;29;20440;-70
2021/04/01 09:45:45;;;;;;;13.80;7.50;;;30.60;20.60;;;29.60;24.41;96216.50;4952108;28;20414;-71
2021/04/01 09:48:12;;;;;;;18.60;6.93;;;30.80;20.90;;;29.82;23.88;96215.69;4950689;28;20039;-71
2021/04/01 09:50:41;;;;;;;14.70;6.43;;;31.10;20.50;;;30.02;22.67;96217.09;4950549;28;20681;-71
2021/04/01 09:53:18;;;;;;;13.67;6.40;;;31.50;19.40;;;30.23;22.90;96211.97;4980570;28;20403;-71
2021/04/01 09:55:48;;;;;;;12.85;6.72;;;31.60;20.10;;;30.40;22.27;96210.16;4970195;28;21544;-69
2021/04/01 09:58:38;;;;;;;15.85;6.78;;;31.80;19.10;;;30.51;22.78;96207.94;4971137;28;20077;-70
2021/04/01 10:04:11;;;;;;;11.65;6.38;;;32.20;19.70;;;30.65;21.95;96186.16;4971021;28;20050;-70
2021/04/01 10:06:45;;;;;;;11.68;7.03;;;31.10;19.70;;;30.76;22.83;96195.59;4969696;28;20078;-71
2021/04/01 10:09:15;;;;;;;14.73;6.50;;;31.70;20.30;;;31.15;22.08;96188.47;4962434;28;20613;-71
2021/04/01 10:11:51;;;;;;;11.43;6.80;;;32.20;19.60;;;31.56;21.40;96177.16;4970215;28;20051;-71
2021/04/01 10:14:17;;;;;;;12.02;6.65;;;32.50;19.30;;;32.04;22.03;96170.69;4954155;28;20123;-70
2021/04/01 10:17:01;;;;;;;17.23;6.60;;;32.70;18.20;;;32.51;20.67;96168.78;4969488;28;20031;-71
2021/04/01 10:19:41;;;;;;;19.13;6.72;;;33.20;18.60;;;32.99;19.41;96170.28;4969484;28;20035;-70
2021/04/01 10:22:21;;;;;;;10.57;6.00;;;33.70;18.30;;;33.47;19.31;96170.59;4968332;28;20035;-71
2021/04/01 10:24:47;;;;;;;13.63;6.20;;;34.20;17.70;;;33.94;21.24;96170.31;4971710;28;20578;-71
2021/04/01 10:27:26;;;;;;;13.40;6.25;;;34.60;17.50;;;34.36;18.94;96160.06;4945367;28;20071;-70
2021/04/01 10:32:33;;;;;;;11.77;6.05;;;35.40;16.70;;;34.98;18.16;96158.13;4954224;28;20070;-67
2021/04/01 10:35:09;;;;;;;10.13;5.70;;;35.30;16.40;;;35.13;18.00;96153.91;4984484;28;20042;-69
2021/04/01 10:37:35;;;;;;;12.13;5.78;;;35.30;16.20;;;35.35;19.25;96144.41;4978087;28;20102;-71
2021/04/01 10:40:08;;;;;;;10.57;6.45;;;35.50;15.90;;;35.59;17.29;96144.31;4969335;28;20470;-72
2021/04/01 10:42:34;;;;;;;12.15;6.97;;;36.00;15.80;;;35.66;18.73;96141.75;4968841;28;20118;-70
2021/04/01 10:45:07;;;;;;;11.35;5.95;;;36.00;16.00;;;35.88;17.05;96138.47;4979201;28;20045;-69
2021/04/01 10:47:55;;;;;;;10.05;5.40;;;36.00;15.50;;;35.97;16.57;96135.56;4987396;28;20332;-70
2021/04/01 10:50:21;;;;;;;14.43;6.63;;;35.90;15.20;;;36.14;18.22;96137.16;4971119;28;20030;-72
2021/04/01 10:52:47;;;;;;;12.23;6.28;;;36.50;15.60;;;36.33;17.68;96129.06;4954165;28;20061;-68
2021/04/01 10:55:13;;;;;;;12.80;6.45;;;36.90;15.10;;;36.47;17.32;96126.69;4952264;28;20502;-69
2021/04/01 10:57:39;;;;;;;14.43;6.20;;;36.70;15.60;;;36.58;17.30;96126.13;4969239;28;20525;-69
2021/04/01 11:00:13;;;;;;;10.75;5.78;;;37.00;15.20;;;36.47;16.39;96113.00;4957398;28;20039;-68
2021/04/01 11:02:51;;;;;;;11.98;5.57;;;36.50;14.70;;;36.56;16.16;96103.78;4969947;28;20037;-69
2021/04/01 11:05:23;;;;;;;10.93;5.40;;;36.90;15.20;;;36.82;16.22;96100.47;4937480;28;20108;-68
2021/04/01 11:08:03;;;;;;;8.07;4.45;;;37.10;14.20;;;36.92;15.55;96103.47;4977321;28;20038;-70
2021/04/01 11:10:29;;;;;;;8.13;5.18;;;37.10;14.00;;;37.11;15.68;96105.41;4970455;28;20367;-68
2021/04/01 11:12:58;;;;;;;9.63;5.38;;;37.80;13.90;;;37.29;15.75;96103.06;4968105;28;20032;-68
2021/04/01 11:15:26;;;;;;;11.80;5.70;;;37.20;14.70;;;37.40;16.23;96098.59;4981632;28;20046;-68
2021/04/01 11:18:06;;;;;;;14.68;5.30;;;38.00;14.60;;;37.57;15.30;96102.81;4959737;28;20047;-72
2021/04/01 11:20:40;;;;;;;12.00;5.50;;;37.80;13.70;;;37.64;14.73;96087.28;4955158;28;20125;-72
2021/04/01 11:23:15;;;;;;;8.48;5.07;;;37.80;13.10;;;37.59;14.33;96084.84;4943936;28;20031;-72
2021/04/01 11:25:51;;;;;;;7.97;4.95;;;37.90;13.00;;;37.55;14.05;96081.22;4966063;28;20034;-73
2021/04/01 11:28:17;;;;;;;10.27;5.40;;;38.20;13.20;;;37.52;14.82;96089.41;4964356;28;20024;-73
2021/04/01 11:30:50;;;;;;;9.30;5.10;;;38.00;12.90;;;37.33;14.84;96090.19;4959969;28;20545;-73
2021/04/01 11:33:21;;;;;;;8.43;4.50;;;37.60;13.30;;;37.23;14.40;96083.31;4963520;28;20049;-72
2021/04/01 11:35:49;;;;;;;12.45;5.00;;;37.80;13.30;;;37.24;14.74;96073.16;4954749;28;20451;-73
2021/04/01 11:38:21;;;;;;;10.63;5.20;;;38.20;12.60;;;37.11;14.40;96070.53;4952130;28;20042;-72
2021/04/01 11:40:59;;;;;;;9.32;5.30;;;37.90;13.30;;;37.22;14.35;96064.50;4955395;28;20532;-72
2021/04/01 11:43:29;;;;;;;10.23;5.43;;;38.70;13.10;;;37.18;14.79;96064.41;4983039;28;20042;-73
2021/04/01 11:45:55;;;;;;;10.43;5.75;;;38.70;12.70;;;36.89;14.91;96060.28;5003307;28;20144;-71
2021/04/01 11:48:20;;;;;;;14.25;5.38;;;37.60;13.00;;;36.52;15.48;96059.06;4932180;28;20035;-71
2021/04/01 11:50:46;;;;;;;12.55;5.38;;;37.60;13.50;;;36.24;15.48;96065.44;4980179;28;20047;-71
2021/04/01 11:53:12;;;;;;;9.77;4.85;;;37.20;13.40;;;36.04;15.73;96061.03;4976971;28;20065;-71
2021/04/01 11:55:46;;;;;;;13.55;5.93;;;37.50;13.50;;;35.93;15.74;96062.69;4935459;28;20080;-72
2021/04/01 11:58:12;;;;;;;9.75;5.90;;;37.60;13.70;;;35.98;15.70;96055.00;4959401;28;20039;-72